sensor_id;sensor_type;location;lat;lon;timestamp;P1;durP1;ratioP1;P2;durP2;ratioP2
29382;SDS011;16365;51.598;7.668;2023-05-23T00:01:05;15.55;;;10.07;;
29382;SDS011;16365;51.598;7.668;2023-05-23T00:03:32;16.00;;;10.93;;
29382;SDS011;16365;51.598;7.668;2023-05-23T00:06:00;12.55;;;9.80;;
29382;SDS011;16365;51.598;7.668;2023-05-23T00:08:27;16.35;;;11.43;;
29382;SDS011;16365;51.598;7.668;2023-05-23T00:10:54;14.25;;;10.15;;
29382;SDS011;16365;51.598;7.668;2023-05-23T00:13:20;18.98;;;10.85;;
29382;SDS011;16365;51.598;7.668;2023-05-23T00:15:47;14.45;;;10.73;;
29382;SDS011;16365;51.598;7.668;2023-05-23T00:18:14;15.45;;;10.77;;
29382;SDS011;16365;51.598;7.668;2023-05-23T00:20:41;16.40;;;10.32;;
29382;SDS011;16365;51.598;7.668;2023-05-23T00:23:08;16.52;;;11.95;;
29382;SDS011;16365;51.598;7.668;2023-05-23T00:25:36;16.42;;;11.25;;
29382;SDS011;16365;51.598;7.668;2023-05-23T00:28:03;23.65;;;11.68;;
29382;SDS011;16365;51.598;7.668;2023-05-23T00:30:31;21.00;;;12.15;;
29382;SDS011;16365;51.598;7.668;2023-05-23T00:32:59;17.00;;;11.20;;
29382;SDS011;16365;51.598;7.668;2023-05-23T00:35:26;21.33;;;11.98;;
29382;SDS011;16365;51.598;7.668;2023-05-23T00:37:53;14.82;;;11.45;;
29382;SDS011;16365;51.598;7.668;2023-05-23T00:40:21;15.13;;;11.60;;
29382;SDS011;16365;51.598;7.668;2023-05-23T00:42:48;17.33;;;10.93;;
29382;SDS011;16365;51.598;7.668;2023-05-23T00:45:15;17.45;;;11.18;;
29382;SDS011;16365;51.598;7.668;2023-05-23T00:47:42;15.48;;;10.73;;
29382;SDS011;16365;51.598;7.668;2023-05-23T00:52:38;14.05;;;10.05;;
29382;SDS011;16365;51.598;7.668;2023-05-23T00:55:04;14.98;;;10.07;;
29382;SDS011;16365;51.598;7.668;2023-05-23T00:57:31;16.17;;;11.15;;
29382;SDS011;16365;51.598;7.668;2023-05-23T01:00:09;14.45;;;10.30;;
29382;SDS011;16365;51.598;7.668;2023-05-23T01:02:48;13.50;;;9.57;;
29382;SDS011;16365;51.598;7.668;2023-05-23T01:05:16;13.88;;;8.73;;
29382;SDS011;16365;51.598;7.668;2023-05-23T01:07:46;10.52;;;7.47;;
29382;SDS011;16365;51.598;7.668;2023-05-23T01:10:17;8.18;;;6.38;;
29382;SDS011;16365;51.598;7.668;2023-05-23T01:12:51;7.55;;;6.45;;
29382;SDS011;16365;51.598;7.668;2023-05-23T01:15:26;10.00;;;5.83;;
29382;SDS011;16365;51.598;7.668;2023-05-23T01:18:01;8.40;;;6.30;;
29382;SDS011;16365;51.598;7.668;2023-05-23T01:20:40;6.97;;;5.78;;
29382;SDS011;16365;51.598;7.668;2023-05-23T01:23:28;8.45;;;5.63;;
29382;SDS011;16365;51.598;7.668;2023-05-23T01:28:45;9.75;;;5.82;;
29382;SDS011;16365;51.598;7.668;2023-05-23T01:31:15;9.13;;;5.65;;
29382;SDS011;16365;51.598;7.668;2023-05-23T01:33:43;9.93;;;5.90;;
29382;SDS011;16365;51.598;7.668;2023-05-23T01:36:12;8.55;;;6.32;;
29382;SDS011;16365;51.598;7.668;2023-05-23T01:41:06;11.10;;;6.00;;
29382;SDS011;16365;51.598;7.668;2023-05-23T01:43:33;7.88;;;6.00;;
29382;SDS011;16365;51.598;7.668;2023-05-23T01:46:00;8.43;;;6.28;;
29382;SDS011;16365;51.598;7.668;2023-05-23T01:48:28;8.93;;;6.35;;
29382;SDS011;16365;51.598;7.668;2023-05-23T01:50:56;8.88;;;6.38;;
29382;SDS011;16365;51.598;7.668;2023-05-23T01:53:24;8.57;;;6.40;;
29382;SDS011;16365;51.598;7.668;2023-05-23T01:55:51;8.27;;;6.25;;
29382;SDS011;16365;51.598;7.668;2023-05-23T01:58:18;8.38;;;6.40;;
29382;SDS011;16365;51.598;7.668;2023-05-23T02:00:44;8.43;;;6.28;;
29382;SDS011;16365;51.598;7.668;2023-05-23T02:03:11;9.20;;;6.70;;
29382;SDS011;16365;51.598;7.668;2023-05-23T02:05:38;9.60;;;6.95;;
29382;SDS011;16365;51.598;7.668;2023-05-23T02:08:05;7.63;;;6.40;;
29382;SDS011;16365;51.598;7.668;2023-05-23T02:10:32;13.80;;;7.22;;
29382;SDS011;16365;51.598;7.668;2023-05-23T02:12:59;9.40;;;6.10;;
29382;SDS011;16365;51.598;7.668;2023-05-23T02:15:25;10.52;;;6.93;;
29382;SDS011;16365;51.598;7.668;2023-05-23T02:17:52;10.07;;;7.20;;
29382;SDS011;16365;51.598;7.668;2023-05-23T02:20:18;12.07;;;7.07;;
29382;SDS011;16365;51.598;7.668;2023-05-23T02:22:45;9.27;;;6.85;;
29382;SDS011;16365;51.598;7.668;2023-05-23T02:25:11;10.77;;;7.25;;
29382;SDS011;16365;51.598;7.668;2023-05-23T02:27:38;8.30;;;6.35;;
29382;SDS011;16365;51.598;7.668;2023-05-23T02:30:05;9.90;;;6.95;;
29382;SDS011;16365;51.598;7.668;2023-05-23T02:32:34;11.43;;;7.13;;
29382;SDS011;16365;51.598;7.668;2023-05-23T02:37:29;10.82;;;7.50;;
29382;SDS011;16365;51.598;7.668;2023-05-23T02:39:55;10.30;;;7.57;;
29382;SDS011;16365;51.598;7.668;2023-05-23T02:42:22;9.27;;;7.07;;
29382;SDS011;16365;51.598;7.668;2023-05-23T02:44:48;12.93;;;7.90;;
29382;SDS011;16365;51.598;7.668;2023-05-23T02:47:15;12.57;;;8.15;;
29382;SDS011;16365;51.598;7.668;2023-05-23T02:49:41;11.00;;;8.00;;
29382;SDS011;16365;51.598;7.668;2023-05-23T02:52:08;16.70;;;10.00;;
29382;SDS011;16365;51.598;7.668;2023-05-23T02:54:35;13.20;;;9.13;;
29382;SDS011;16365;51.598;7.668;2023-05-23T02:57:01;18.73;;;9.32;;
29382;SDS011;16365;51.598;7.668;2023-05-23T02:59:27;14.10;;;9.98;;
29382;SDS011;16365;51.598;7.668;2023-05-23T03:01:54;15.25;;;10.05;;
29382;SDS011;16365;51.598;7.668;2023-05-23T03:04:22;14.45;;;9.70;;
29382;SDS011;16365;51.598;7.668;2023-05-23T03:06:49;16.77;;;9.50;;
29382;SDS011;16365;51.598;7.668;2023-05-23T03:09:19;14.85;;;10.07;;
29382;SDS011;16365;51.598;7.668;2023-05-23T03:11:46;15.10;;;9.50;;
29382;SDS011;16365;51.598;7.668;2023-05-23T03:14:13;14.73;;;9.70;;
29382;SDS011;16365;51.598;7.668;2023-05-23T03:16:40;18.48;;;10.07;;
29382;SDS011;16365;51.598;7.668;2023-05-23T03:19:07;15.13;;;9.93;;
29382;SDS011;16365;51.598;7.668;2023-05-23T03:21:33;13.07;;;9.13;;
29382;SDS011;16365;51.598;7.668;2023-05-23T03:24:00;16.98;;;9.00;;
29382;SDS011;16365;51.598;7.668;2023-05-23T03:26:27;15.77;;;10.80;;
29382;SDS011;16365;51.598;7.668;2023-05-23T03:28:54;18.52;;;10.88;;
29382;SDS011;16365;51.598;7.668;2023-05-23T03:31:21;19.40;;;12.25;;
29382;SDS011;16365;51.598;7.668;2023-05-23T03:33:48;19.55;;;11.43;;
29382;SDS011;16365;51.598;7.668;2023-05-23T03:36:14;20.40;;;12.38;;
29382;SDS011;16365;51.598;7.668;2023-05-23T03:38:41;22.25;;;13.43;;
29382;SDS011;16365;51.598;7.668;2023-05-23T03:41:07;21.75;;;13.93;;
29382;SDS011;16365;51.598;7.668;2023-05-23T03:43:34;27.80;;;14.75;;
29382;SDS011;16365;51.598;7.668;2023-05-23T03:46:01;26.65;;;13.75;;
29382;SDS011;16365;51.598;7.668;2023-05-23T03:48:28;28.30;;;14.32;;
29382;SDS011;16365;51.598;7.668;2023-05-23T03:50:55;25.73;;;13.68;;
29382;SDS011;16365;51.598;7.668;2023-05-23T03:53:22;23.63;;;13.10;;
29382;SDS011;16365;51.598;7.668;2023-05-23T03:55:48;21.33;;;12.45;;
29382;SDS011;16365;51.598;7.668;2023-05-23T03:58:15;17.98;;;12.05;;
29382;SDS011;16365;51.598;7.668;2023-05-23T04:00:42;24.15;;;12.00;;
29382;SDS011;16365;51.598;7.668;2023-05-23T04:03:09;21.40;;;12.45;;
29382;SDS011;16365;51.598;7.668;2023-05-23T04:05:37;24.73;;;12.23;;
29382;SDS011;16365;51.598;7.668;2023-05-23T04:08:04;28.45;;;12.32;;
29382;SDS011;16365;51.598;7.668;2023-05-23T04:10:32;20.42;;;11.50;;
29382;SDS011;16365;51.598;7.668;2023-05-23T04:12:58;22.45;;;13.05;;
29382;SDS011;16365;51.598;7.668;2023-05-23T04:15:25;20.27;;;12.18;;
29382;SDS011;16365;51.598;7.668;2023-05-23T04:17:53;25.25;;;12.57;;
29382;SDS011;16365;51.598;7.668;2023-05-23T04:20:20;21.77;;;11.93;;
29382;SDS011;16365;51.598;7.668;2023-05-23T04:22:48;23.65;;;11.43;;
29382;SDS011;16365;51.598;7.668;2023-05-23T04:25:14;24.42;;;11.23;;
29382;SDS011;16365;51.598;7.668;2023-05-23T04:27:43;21.48;;;10.30;;
29382;SDS011;16365;51.598;7.668;2023-05-23T04:30:10;19.20;;;10.45;;
29382;SDS011;16365;51.598;7.668;2023-05-23T04:32:37;16.48;;;10.23;;
29382;SDS011;16365;51.598;7.668;2023-05-23T04:35:04;16.85;;;10.43;;
29382;SDS011;16365;51.598;7.668;2023-05-23T04:37:31;18.80;;;10.23;;
29382;SDS011;16365;51.598;7.668;2023-05-23T04:39:58;18.17;;;10.38;;
29382;SDS011;16365;51.598;7.668;2023-05-23T04:42:28;18.02;;;9.85;;
29382;SDS011;16365;51.598;7.668;2023-05-23T04:44:54;15.80;;;9.73;;
29382;SDS011;16365;51.598;7.668;2023-05-23T04:47:24;17.30;;;9.50;;
29382;SDS011;16365;51.598;7.668;2023-05-23T04:49:53;17.45;;;9.75;;
29382;SDS011;16365;51.598;7.668;2023-05-23T04:52:21;15.20;;;9.27;;
29382;SDS011;16365;51.598;7.668;2023-05-23T04:54:48;16.70;;;9.32;;
29382;SDS011;16365;51.598;7.668;2023-05-23T04:57:15;16.63;;;9.68;;
29382;SDS011;16365;51.598;7.668;2023-05-23T04:59:42;17.70;;;9.68;;
29382;SDS011;16365;51.598;7.668;2023-05-23T05:02:08;13.38;;;8.68;;
29382;SDS011;16365;51.598;7.668;2023-05-23T05:04:34;16.05;;;9.25;;
29382;SDS011;16365;51.598;7.668;2023-05-23T05:07:02;15.45;;;9.40;;
29382;SDS011;16365;51.598;7.668;2023-05-23T05:09:29;17.77;;;9.27;;
29382;SDS011;16365;51.598;7.668;2023-05-23T05:11:56;15.82;;;8.63;;
29382;SDS011;16365;51.598;7.668;2023-05-23T05:14:24;15.85;;;8.82;;
29382;SDS011;16365;51.598;7.668;2023-05-23T05:16:52;13.52;;;8.55;;
29382;SDS011;16365;51.598;7.668;2023-05-23T05:19:23;15.02;;;8.73;;
29382;SDS011;16365;51.598;7.668;2023-05-23T05:21:50;17.10;;;9.63;;
29382;SDS011;16365;51.598;7.668;2023-05-23T05:24:17;15.18;;;8.77;;
29382;SDS011;16365;51.598;7.668;2023-05-23T05:29:13;17.83;;;9.30;;
29382;SDS011;16365;51.598;7.668;2023-05-23T05:31:40;17.77;;;9.52;;
29382;SDS011;16365;51.598;7.668;2023-05-23T05:34:06;15.85;;;9.55;;
29382;SDS011;16365;51.598;7.668;2023-05-23T05:36:33;19.75;;;9.77;;
29382;SDS011;16365;51.598;7.668;2023-05-23T05:38:59;16.77;;;9.80;;
29382;SDS011;16365;51.598;7.668;2023-05-23T05:41:26;17.88;;;10.18;;
29382;SDS011;16365;51.598;7.668;2023-05-23T05:43:52;21.95;;;10.90;;
29382;SDS011;16365;51.598;7.668;2023-05-23T05:46:19;19.73;;;10.55;;
29382;SDS011;16365;51.598;7.668;2023-05-23T05:48:46;19.90;;;11.38;;
29382;SDS011;16365;51.598;7.668;2023-05-23T05:51:12;20.88;;;10.57;;
29382;SDS011;16365;51.598;7.668;2023-05-23T05:53:39;22.42;;;11.07;;
29382;SDS011;16365;51.598;7.668;2023-05-23T05:56:05;19.92;;;11.02;;
29382;SDS011;16365;51.598;7.668;2023-05-23T05:58:34;19.33;;;10.43;;
29382;SDS011;16365;51.598;7.668;2023-05-23T06:01:00;24.13;;;11.13;;
29382;SDS011;16365;51.598;7.668;2023-05-23T06:03:27;17.33;;;10.65;;
29382;SDS011;16365;51.598;7.668;2023-05-23T06:05:54;20.50;;;10.88;;
29382;SDS011;16365;51.598;7.668;2023-05-23T06:08:21;19.67;;;10.00;;
29382;SDS011;16365;51.598;7.668;2023-05-23T06:10:47;17.92;;;10.98;;
29382;SDS011;16365;51.598;7.668;2023-05-23T06:13:13;21.77;;;10.57;;
29382;SDS011;16365;51.598;7.668;2023-05-23T06:15:40;21.80;;;10.98;;
29382;SDS011;16365;51.598;7.668;2023-05-23T06:18:06;24.15;;;11.82;;
29382;SDS011;16365;51.598;7.668;2023-05-23T06:20:33;23.15;;;11.65;;
29382;SDS011;16365;51.598;7.668;2023-05-23T06:23:00;21.15;;;11.73;;
29382;SDS011;16365;51.598;7.668;2023-05-23T06:25:26;17.73;;;10.35;;
29382;SDS011;16365;51.598;7.668;2023-05-23T06:27:53;25.15;;;11.75;;
29382;SDS011;16365;51.598;7.668;2023-05-23T06:30:20;21.15;;;11.75;;
29382;SDS011;16365;51.598;7.668;2023-05-23T06:32:48;26.63;;;11.10;;
29382;SDS011;16365;51.598;7.668;2023-05-23T06:35:15;19.77;;;10.98;;
29382;SDS011;16365;51.598;7.668;2023-05-23T06:37:43;19.58;;;10.70;;
29382;SDS011;16365;51.598;7.668;2023-05-23T06:40:11;17.95;;;10.30;;
29382;SDS011;16365;51.598;7.668;2023-05-23T06:42:40;17.00;;;10.88;;
29382;SDS011;16365;51.598;7.668;2023-05-23T06:45:07;18.00;;;10.32;;
29382;SDS011;16365;51.598;7.668;2023-05-23T06:47:33;18.95;;;10.20;;
29382;SDS011;16365;51.598;7.668;2023-05-23T06:50:01;16.73;;;8.93;;
29382;SDS011;16365;51.598;7.668;2023-05-23T06:52:28;21.75;;;9.77;;
29382;SDS011;16365;51.598;7.668;2023-05-23T06:54:54;15.15;;;8.73;;
29382;SDS011;16365;51.598;7.668;2023-05-23T06:57:21;13.63;;;7.70;;
29382;SDS011;16365;51.598;7.668;2023-05-23T06:59:48;14.73;;;7.82;;
29382;SDS011;16365;51.598;7.668;2023-05-23T07:02:14;13.40;;;6.63;;
29382;SDS011;16365;51.598;7.668;2023-05-23T07:04:41;9.60;;;5.68;;
29382;SDS011;16365;51.598;7.668;2023-05-23T07:07:07;8.90;;;5.35;;
29382;SDS011;16365;51.598;7.668;2023-05-23T07:09:35;9.07;;;5.20;;
29382;SDS011;16365;51.598;7.668;2023-05-23T07:14:30;6.20;;;4.43;;
29382;SDS011;16365;51.598;7.668;2023-05-23T07:16:57;6.50;;;4.53;;
29382;SDS011;16365;51.598;7.668;2023-05-23T07:19:23;10.63;;;5.10;;
29382;SDS011;16365;51.598;7.668;2023-05-23T07:21:50;7.10;;;3.95;;
29382;SDS011;16365;51.598;7.668;2023-05-23T07:24:16;10.00;;;4.63;;
29382;SDS011;16365;51.598;7.668;2023-05-23T07:26:44;8.88;;;4.63;;
29382;SDS011;16365;51.598;7.668;2023-05-23T07:29:11;9.27;;;4.85;;
29382;SDS011;16365;51.598;7.668;2023-05-23T07:31:37;5.78;;;4.32;;
29382;SDS011;16365;51.598;7.668;2023-05-23T07:34:04;8.45;;;4.97;;
29382;SDS011;16365;51.598;7.668;2023-05-23T07:36:30;8.02;;;4.85;;
29382;SDS011;16365;51.598;7.668;2023-05-23T07:38:59;8.15;;;5.35;;
29382;SDS011;16365;51.598;7.668;2023-05-23T07:41:26;9.60;;;4.70;;
29382;SDS011;16365;51.598;7.668;2023-05-23T07:43:53;10.07;;;5.10;;
29382;SDS011;16365;51.598;7.668;2023-05-23T07:46:19;9.82;;;6.13;;
29382;SDS011;16365;51.598;7.668;2023-05-23T07:48:48;12.00;;;6.07;;
29382;SDS011;16365;51.598;7.668;2023-05-23T07:51:14;9.52;;;5.70;;
29382;SDS011;16365;51.598;7.668;2023-05-23T07:53:46;11.02;;;6.15;;
29382;SDS011;16365;51.598;7.668;2023-05-23T07:56:12;12.20;;;5.95;;
29382;SDS011;16365;51.598;7.668;2023-05-23T07:58:39;10.32;;;5.47;;
29382;SDS011;16365;51.598;7.668;2023-05-23T08:01:05;14.93;;;6.10;;
29382;SDS011;16365;51.598;7.668;2023-05-23T08:03:33;9.88;;;6.13;;
29382;SDS011;16365;51.598;7.668;2023-05-23T08:05:59;13.38;;;6.25;;
29382;SDS011;16365;51.598;7.668;2023-05-23T08:08:26;12.95;;;6.18;;
29382;SDS011;16365;51.598;7.668;2023-05-23T08:10:53;10.93;;;6.20;;
29382;SDS011;16365;51.598;7.668;2023-05-23T08:13:19;11.05;;;6.57;;
29382;SDS011;16365;51.598;7.668;2023-05-23T08:15:46;12.50;;;6.22;;
29382;SDS011;16365;51.598;7.668;2023-05-23T08:18:12;10.63;;;5.78;;
29382;SDS011;16365;51.598;7.668;2023-05-23T08:20:39;12.35;;;6.70;;
29382;SDS011;16365;51.598;7.668;2023-05-23T08:23:07;13.75;;;6.93;;
29382;SDS011;16365;51.598;7.668;2023-05-23T08:25:34;16.83;;;5.90;;
29382;SDS011;16365;51.598;7.668;2023-05-23T08:28:01;13.45;;;6.82;;
29382;SDS011;16365;51.598;7.668;2023-05-23T08:30:27;16.27;;;5.82;;
29382;SDS011;16365;51.598;7.668;2023-05-23T08:32:54;13.50;;;6.07;;
29382;SDS011;16365;51.598;7.668;2023-05-23T08:35:22;12.88;;;6.50;;
29382;SDS011;16365;51.598;7.668;2023-05-23T08:37:49;11.93;;;5.68;;
29382;SDS011;16365;51.598;7.668;2023-05-23T08:40:18;15.55;;;5.97;;
29382;SDS011;16365;51.598;7.668;2023-05-23T08:42:47;11.10;;;5.60;;
29382;SDS011;16365;51.598;7.668;2023-05-23T08:45:14;10.98;;;6.10;;
29382;SDS011;16365;51.598;7.668;2023-05-23T08:47:42;15.17;;;5.70;;
29382;SDS011;16365;51.598;7.668;2023-05-23T08:50:14;11.38;;;5.57;;
29382;SDS011;16365;51.598;7.668;2023-05-23T08:52:55;13.68;;;6.45;;
29382;SDS011;16365;51.598;7.668;2023-05-23T08:55:26;10.65;;;4.95;;
29382;SDS011;16365;51.598;7.668;2023-05-23T08:57:54;14.20;;;5.72;;
29382;SDS011;16365;51.598;7.668;2023-05-23T09:00:24;12.70;;;4.88;;
29382;SDS011;16365;51.598;7.668;2023-05-23T09:02:52;11.60;;;5.32;;
29382;SDS011;16365;51.598;7.668;2023-05-23T09:05:20;11.13;;;5.13;;
29382;SDS011;16365;51.598;7.668;2023-05-23T09:07:47;10.18;;;5.45;;
29382;SDS011;16365;51.598;7.668;2023-05-23T09:10:16;9.88;;;5.47;;
29382;SDS011;16365;51.598;7.668;2023-05-23T09:12:45;13.98;;;5.18;;
29382;SDS011;16365;51.598;7.668;2023-05-23T09:15:12;12.75;;;5.60;;
29382;SDS011;16365;51.598;7.668;2023-05-23T09:17:39;11.15;;;5.50;;
29382;SDS011;16365;51.598;7.668;2023-05-23T09:20:10;10.90;;;4.95;;
29382;SDS011;16365;51.598;7.668;2023-05-23T09:22:40;13.15;;;5.55;;
29382;SDS011;16365;51.598;7.668;2023-05-23T09:25:10;19.88;;;5.97;;
29382;SDS011;16365;51.598;7.668;2023-05-23T09:27:37;12.07;;;6.22;;
29382;SDS011;16365;51.598;7.668;2023-05-23T09:30:08;12.55;;;5.70;;
29382;SDS011;16365;51.598;7.668;2023-05-23T09:32:37;14.02;;;6.43;;
29382;SDS011;16365;51.598;7.668;2023-05-23T09:35:05;16.98;;;6.65;;
29382;SDS011;16365;51.598;7.668;2023-05-23T09:40:05;15.23;;;6.10;;
29382;SDS011;16365;51.598;7.668;2023-05-23T09:42:42;13.65;;;6.03;;
29382;SDS011;16365;51.598;7.668;2023-05-23T09:45:09;12.77;;;6.20;;
29382;SDS011;16365;51.598;7.668;2023-05-23T09:47:39;14.93;;;6.38;;
29382;SDS011;16365;51.598;7.668;2023-05-23T09:50:14;15.30;;;6.53;;
29382;SDS011;16365;51.598;7.668;2023-05-23T09:52:40;14.77;;;6.25;;
29382;SDS011;16365;51.598;7.668;2023-05-23T09:55:07;16.73;;;7.00;;
29382;SDS011;16365;51.598;7.668;2023-05-23T09:57:34;17.38;;;6.47;;
29382;SDS011;16365;51.598;7.668;2023-05-23T10:05:43;20.60;;;6.57;;
29382;SDS011;16365;51.598;7.668;2023-05-23T10:13:43;22.13;;;7.68;;
29382;SDS011;16365;51.598;7.668;2023-05-23T10:16:13;18.25;;;6.75;;
29382;SDS011;16365;51.598;7.668;2023-05-23T10:18:42;14.82;;;7.28;;
29382;SDS011;16365;51.598;7.668;2023-05-23T10:21:16;18.48;;;7.47;;
29382;SDS011;16365;51.598;7.668;2023-05-23T10:23:46;23.13;;;8.10;;
29382;SDS011;16365;51.598;7.668;2023-05-23T10:26:13;16.88;;;7.35;;
29382;SDS011;16365;51.598;7.668;2023-05-23T10:28:41;15.45;;;6.65;;
29382;SDS011;16365;51.598;7.668;2023-05-23T10:31:07;16.85;;;7.28;;
29382;SDS011;16365;51.598;7.668;2023-05-23T10:33:39;18.27;;;7.28;;
29382;SDS011;16365;51.598;7.668;2023-05-23T10:36:09;17.90;;;7.50;;
29382;SDS011;16365;51.598;7.668;2023-05-23T10:38:45;18.52;;;7.28;;
29382;SDS011;16365;51.598;7.668;2023-05-23T10:41:33;17.27;;;7.13;;
29382;SDS011;16365;51.598;7.668;2023-05-23T10:44:20;18.60;;;7.18;;
29382;SDS011;16365;51.598;7.668;2023-05-23T10:49:19;19.73;;;7.57;;
29382;SDS011;16365;51.598;7.668;2023-05-23T10:51:49;21.90;;;7.63;;
29382;SDS011;16365;51.598;7.668;2023-05-23T10:54:19;19.25;;;7.53;;
29382;SDS011;16365;51.598;7.668;2023-05-23T10:56:46;17.33;;;6.85;;
29382;SDS011;16365;51.598;7.668;2023-05-23T10:59:20;16.77;;;6.95;;
29382;SDS011;16365;51.598;7.668;2023-05-23T11:01:51;19.55;;;6.45;;
29382;SDS011;16365;51.598;7.668;2023-05-23T11:04:24;24.60;;;7.32;;
29382;SDS011;16365;51.598;7.668;2023-05-23T11:06:55;21.88;;;6.68;;
29382;SDS011;16365;51.598;7.668;2023-05-23T11:09:22;13.85;;;5.90;;
29382;SDS011;16365;51.598;7.668;2023-05-23T11:14:15;16.10;;;6.28;;
29382;SDS011;16365;51.598;7.668;2023-05-23T11:16:42;21.80;;;6.93;;
29382;SDS011;16365;51.598;7.668;2023-05-23T11:22:02;19.27;;;6.32;;
29382;SDS011;16365;51.598;7.668;2023-05-23T11:27:33;12.70;;;5.85;;
29382;SDS011;16365;51.598;7.668;2023-05-23T11:32:41;11.55;;;4.90;;
29382;SDS011;16365;51.598;7.668;2023-05-23T11:35:21;16.40;;;5.57;;
29382;SDS011;16365;51.598;7.668;2023-05-23T11:37:48;10.27;;;4.93;;
29382;SDS011;16365;51.598;7.668;2023-05-23T11:40:34;15.95;;;6.55;;
29382;SDS011;16365;51.598;7.668;2023-05-23T11:43:14;19.02;;;5.40;;
29382;SDS011;16365;51.598;7.668;2023-05-23T11:45:45;14.15;;;5.28;;
29382;SDS011;16365;51.598;7.668;2023-05-23T11:48:12;15.60;;;5.90;;
29382;SDS011;16365;51.598;7.668;2023-05-23T11:50:48;16.85;;;4.68;;
29382;SDS011;16365;51.598;7.668;2023-05-23T11:53:20;18.83;;;5.00;;
29382;SDS011;16365;51.598;7.668;2023-05-23T11:55:52;13.55;;;4.78;;
29382;SDS011;16365;51.598;7.668;2023-05-23T11:58:21;15.57;;;4.80;;
29382;SDS011;16365;51.598;7.668;2023-05-23T12:00:48;16.20;;;4.68;;
29382;SDS011;16365;51.598;7.668;2023-05-23T12:03:15;12.43;;;4.10;;
29382;SDS011;16365;51.598;7.668;2023-05-23T12:05:42;16.42;;;5.13;;
29382;SDS011;16365;51.598;7.668;2023-05-23T12:08:11;20.23;;;4.47;;
29382;SDS011;16365;51.598;7.668;2023-05-23T12:13:13;15.20;;;4.50;;
29382;SDS011;16365;51.598;7.668;2023-05-23T12:15:40;17.17;;;5.60;;
29382;SDS011;16365;51.598;7.668;2023-05-23T12:18:07;21.30;;;4.38;;
29382;SDS011;16365;51.598;7.668;2023-05-23T12:20:34;19.70;;;4.55;;
29382;SDS011;16365;51.598;7.668;2023-05-23T12:23:04;16.50;;;5.00;;
29382;SDS011;16365;51.598;7.668;2023-05-23T12:25:39;20.83;;;5.32;;
29382;SDS011;16365;51.598;7.668;2023-05-23T12:28:07;16.95;;;4.25;;
29382;SDS011;16365;51.598;7.668;2023-05-23T12:30:42;19.48;;;4.80;;
29382;SDS011;16365;51.598;7.668;2023-05-23T12:33:09;14.38;;;4.28;;
29382;SDS011;16365;51.598;7.668;2023-05-23T12:35:37;17.98;;;5.97;;
29382;SDS011;16365;51.598;7.668;2023-05-23T12:38:08;15.20;;;4.70;;
29382;SDS011;16365;51.598;7.668;2023-05-23T12:40:35;17.40;;;5.18;;
29382;SDS011;16365;51.598;7.668;2023-05-23T12:43:01;15.77;;;4.50;;
29382;SDS011;16365;51.598;7.668;2023-05-23T12:45:34;15.65;;;5.00;;
29382;SDS011;16365;51.598;7.668;2023-05-23T12:48:02;22.33;;;4.95;;
29382;SDS011;16365;51.598;7.668;2023-05-23T12:50:29;18.60;;;4.88;;
29382;SDS011;16365;51.598;7.668;2023-05-23T12:52:56;16.52;;;4.97;;
29382;SDS011;16365;51.598;7.668;2023-05-23T12:55:23;17.25;;;4.88;;
29382;SDS011;16365;51.598;7.668;2023-05-23T12:57:50;18.00;;;4.38;;
29382;SDS011;16365;51.598;7.668;2023-05-23T13:00:18;20.27;;;5.00;;
29382;SDS011;16365;51.598;7.668;2023-05-23T13:02:45;13.02;;;4.15;;
29382;SDS011;16365;51.598;7.668;2023-05-23T13:05:12;18.50;;;4.70;;
29382;SDS011;16365;51.598;7.668;2023-05-23T13:07:38;22.75;;;5.53;;
29382;SDS011;16365;51.598;7.668;2023-05-23T13:10:05;20.90;;;4.72;;
29382;SDS011;16365;51.598;7.668;2023-05-23T13:12:32;19.58;;;4.90;;
29382;SDS011;16365;51.598;7.668;2023-05-23T13:14:59;14.80;;;4.25;;
29382;SDS011;16365;51.598;7.668;2023-05-23T13:17:26;18.30;;;4.75;;
29382;SDS011;16365;51.598;7.668;2023-05-23T13:19:53;22.20;;;4.85;;
29382;SDS011;16365;51.598;7.668;2023-05-23T13:22:19;13.23;;;4.20;;
29382;SDS011;16365;51.598;7.668;2023-05-23T13:24:46;14.95;;;3.97;;
29382;SDS011;16365;51.598;7.668;2023-05-23T13:27:13;18.27;;;4.15;;
29382;SDS011;16365;51.598;7.668;2023-05-23T13:29:41;21.27;;;4.85;;
29382;SDS011;16365;51.598;7.668;2023-05-23T13:32:08;19.58;;;4.70;;
29382;SDS011;16365;51.598;7.668;2023-05-23T13:34:34;17.17;;;4.53;;
29382;SDS011;16365;51.598;7.668;2023-05-23T13:37:04;19.48;;;4.25;;
29382;SDS011;16365;51.598;7.668;2023-05-23T13:39:31;11.70;;;4.07;;
29382;SDS011;16365;51.598;7.668;2023-05-23T13:41:57;14.50;;;4.60;;
29382;SDS011;16365;51.598;7.668;2023-05-23T13:44:24;11.98;;;3.63;;
29382;SDS011;16365;51.598;7.668;2023-05-23T13:46:51;18.20;;;4.07;;
29382;SDS011;16365;51.598;7.668;2023-05-23T13:49:17;18.38;;;5.00;;
29382;SDS011;16365;51.598;7.668;2023-05-23T13:51:44;15.35;;;4.20;;
29382;SDS011;16365;51.598;7.668;2023-05-23T13:54:10;26.90;;;4.82;;
29382;SDS011;16365;51.598;7.668;2023-05-23T13:56:38;22.30;;;4.37;;
29382;SDS011;16365;51.598;7.668;2023-05-23T13:59:05;17.73;;;3.92;;
29382;SDS011;16365;51.598;7.668;2023-05-23T14:01:32;14.13;;;3.85;;
29382;SDS011;16365;51.598;7.668;2023-05-23T14:03:58;12.82;;;4.30;;
29382;SDS011;16365;51.598;7.668;2023-05-23T14:06:25;14.35;;;4.35;;
29382;SDS011;16365;51.598;7.668;2023-05-23T14:08:51;19.52;;;4.03;;
29382;SDS011;16365;51.598;7.668;2023-05-23T14:11:18;12.52;;;3.55;;
29382;SDS011;16365;51.598;7.668;2023-05-23T14:13:45;15.80;;;3.95;;
29382;SDS011;16365;51.598;7.668;2023-05-23T14:16:11;16.83;;;4.45;;
29382;SDS011;16365;51.598;7.668;2023-05-23T14:18:37;17.42;;;4.38;;
29382;SDS011;16365;51.598;7.668;2023-05-23T14:21:04;12.05;;;3.30;;
29382;SDS011;16365;51.598;7.668;2023-05-23T14:23:31;17.25;;;4.28;;
29382;SDS011;16365;51.598;7.668;2023-05-23T14:25:57;20.05;;;5.10;;
29382;SDS011;16365;51.598;7.668;2023-05-23T14:28:25;13.35;;;3.45;;
29382;SDS011;16365;51.598;7.668;2023-05-23T14:30:52;14.73;;;4.00;;
29382;SDS011;16365;51.598;7.668;2023-05-23T14:33:20;16.00;;;3.72;;
29382;SDS011;16365;51.598;7.668;2023-05-23T14:35:47;12.38;;;3.38;;
29382;SDS011;16365;51.598;7.668;2023-05-23T14:38:14;19.48;;;4.60;;
29382;SDS011;16365;51.598;7.668;2023-05-23T14:40:41;15.05;;;4.35;;
29382;SDS011;16365;51.598;7.668;2023-05-23T14:43:09;13.25;;;3.50;;
29382;SDS011;16365;51.598;7.668;2023-05-23T14:45:36;16.52;;;3.53;;
29382;SDS011;16365;51.598;7.668;2023-05-23T14:48:03;12.52;;;3.75;;
29382;SDS011;16365;51.598;7.668;2023-05-23T14:50:30;10.88;;;3.85;;
29382;SDS011;16365;51.598;7.668;2023-05-23T14:52:57;17.70;;;2.95;;
29382;SDS011;16365;51.598;7.668;2023-05-23T14:55:24;15.93;;;3.35;;
29382;SDS011;16365;51.598;7.668;2023-05-23T14:57:51;25.52;;;4.13;;
29382;SDS011;16365;51.598;7.668;2023-05-23T15:00:17;17.15;;;3.58;;
29382;SDS011;16365;51.598;7.668;2023-05-23T15:02:44;18.08;;;4.60;;
29382;SDS011;16365;51.598;7.668;2023-05-23T15:05:11;14.07;;;3.53;;
29382;SDS011;16365;51.598;7.668;2023-05-23T15:07:38;15.65;;;3.90;;
29382;SDS011;16365;51.598;7.668;2023-05-23T15:10:05;13.43;;;3.22;;
29382;SDS011;16365;51.598;7.668;2023-05-23T15:12:33;11.65;;;3.78;;
29382;SDS011;16365;51.598;7.668;2023-05-23T15:15:00;18.73;;;3.60;;
29382;SDS011;16365;51.598;7.668;2023-05-23T15:17:30;14.43;;;3.60;;
29382;SDS011;16365;51.598;7.668;2023-05-23T15:19:59;13.98;;;3.42;;
29382;SDS011;16365;51.598;7.668;2023-05-23T15:22:32;12.93;;;3.40;;